sensor_id;sensor_type;location;lat;lon;timestamp;P1;durP1;ratioP1;P2;durP2;ratioP2
73841;SDS011;62184;52.006;5.924;2022-12-08T00:01:27;45.28;;;19.15;;
73841;SDS011;62184;52.006;5.924;2022-12-08T00:03:59;45.15;;;19.55;;
73841;SDS011;62184;52.006;5.924;2022-12-08T00:06:28;43.10;;;18.02;;
73841;SDS011;62184;52.006;5.924;2022-12-08T00:08:57;38.95;;;17.85;;
73841;SDS011;62184;52.006;5.924;2022-12-08T00:11:23;40.15;;;17.88;;
73841;SDS011;62184;52.006;5.924;2022-12-08T00:13:50;40.53;;;17.60;;
73841;SDS011;62184;52.006;5.924;2022-12-08T00:16:16;39.67;;;17.75;;
73841;SDS011;62184;52.006;5.924;2022-12-08T00:18:42;38.25;;;16.20;;
73841;SDS011;62184;52.006;5.924;2022-12-08T00:21:11;38.67;;;17.08;;
73841;SDS011;62184;52.006;5.924;2022-12-08T00:23:38;39.50;;;16.33;;
73841;SDS011;62184;52.006;5.924;2022-12-08T00:26:05;38.53;;;16.15;;
73841;SDS011;62184;52.006;5.924;2022-12-08T00:28:32;37.88;;;15.80;;
73841;SDS011;62184;52.006;5.924;2022-12-08T00:30:59;38.03;;;16.37;;
73841;SDS011;62184;52.006;5.924;2022-12-08T00:33:32;41.13;;;16.33;;
73841;SDS011;62184;52.006;5.924;2022-12-08T00:36:03;38.70;;;15.77;;
73841;SDS011;62184;52.006;5.924;2022-12-08T00:38:34;42.33;;;16.37;;
73841;SDS011;62184;52.006;5.924;2022-12-08T00:41:02;40.93;;;16.27;;
73841;SDS011;62184;52.006;5.924;2022-12-08T00:43:31;43.03;;;16.25;;
73841;SDS011;62184;52.006;5.924;2022-12-08T00:45:58;38.38;;;15.90;;
73841;SDS011;62184;52.006;5.924;2022-12-08T00:48:24;38.10;;;15.13;;
73841;SDS011;62184;52.006;5.924;2022-12-08T00:50:50;36.35;;;15.45;;
73841;SDS011;62184;52.006;5.924;2022-12-08T00:53:17;36.85;;;14.82;;
73841;SDS011;62184;52.006;5.924;2022-12-08T00:55:46;36.38;;;15.07;;
73841;SDS011;62184;52.006;5.924;2022-12-08T00:58:12;34.03;;;15.60;;
73841;SDS011;62184;52.006;5.924;2022-12-08T01:00:39;32.47;;;14.20;;
73841;SDS011;62184;52.006;5.924;2022-12-08T01:03:08;31.92;;;14.32;;
73841;SDS011;62184;52.006;5.924;2022-12-08T01:05:34;30.98;;;14.70;;
73841;SDS011;62184;52.006;5.924;2022-12-08T01:08:02;31.83;;;14.30;;
73841;SDS011;62184;52.006;5.924;2022-12-08T01:10:31;30.25;;;14.57;;
73841;SDS011;62184;52.006;5.924;2022-12-08T01:13:02;29.40;;;14.10;;
73841;SDS011;62184;52.006;5.924;2022-12-08T01:15:29;27.85;;;13.13;;
73841;SDS011;62184;52.006;5.924;2022-12-08T01:17:55;28.80;;;14.15;;
73841;SDS011;62184;52.006;5.924;2022-12-08T01:20:22;24.90;;;12.20;;
73841;SDS011;62184;52.006;5.924;2022-12-08T01:22:49;25.80;;;12.25;;
73841;SDS011;62184;52.006;5.924;2022-12-08T01:25:15;25.17;;;11.60;;
73841;SDS011;62184;52.006;5.924;2022-12-08T01:27:42;23.80;;;11.65;;
73841;SDS011;62184;52.006;5.924;2022-12-08T01:30:12;24.58;;;11.65;;
73841;SDS011;62184;52.006;5.924;2022-12-08T01:32:39;22.77;;;11.82;;
73841;SDS011;62184;52.006;5.924;2022-12-08T01:35:05;21.27;;;11.65;;
73841;SDS011;62184;52.006;5.924;2022-12-08T01:37:33;24.88;;;12.75;;
73841;SDS011;62184;52.006;5.924;2022-12-08T01:40:00;25.80;;;12.48;;
73841;SDS011;62184;52.006;5.924;2022-12-08T01:42:26;29.58;;;14.52;;
73841;SDS011;62184;52.006;5.924;2022-12-08T01:44:54;29.38;;;14.60;;
73841;SDS011;62184;52.006;5.924;2022-12-08T01:47:28;32.67;;;14.93;;
73841;SDS011;62184;52.006;5.924;2022-12-08T01:50:03;32.05;;;15.52;;
73841;SDS011;62184;52.006;5.924;2022-12-08T01:52:36;34.53;;;16.90;;
73841;SDS011;62184;52.006;5.924;2022-12-08T01:55:08;35.87;;;16.73;;
73841;SDS011;62184;52.006;5.924;2022-12-08T01:57:42;39.53;;;18.50;;
73841;SDS011;62184;52.006;5.924;2022-12-08T02:00:14;36.67;;;17.58;;
73841;SDS011;62184;52.006;5.924;2022-12-08T02:02:49;37.05;;;18.23;;
73841;SDS011;62184;52.006;5.924;2022-12-08T02:05:22;36.72;;;17.63;;
73841;SDS011;62184;52.006;5.924;2022-12-08T02:07:53;36.08;;;18.00;;
73841;SDS011;62184;52.006;5.924;2022-12-08T02:10:22;36.22;;;17.40;;
73841;SDS011;62184;52.006;5.924;2022-12-08T02:12:53;39.03;;;18.00;;
73841;SDS011;62184;52.006;5.924;2022-12-08T02:15:25;39.55;;;19.38;;
73841;SDS011;62184;52.006;5.924;2022-12-08T02:18:10;37.20;;;18.43;;
73841;SDS011;62184;52.006;5.924;2022-12-08T02:20:56;38.35;;;17.90;;
73841;SDS011;62184;52.006;5.924;2022-12-08T02:23:33;37.40;;;18.65;;
73841;SDS011;62184;52.006;5.924;2022-12-08T02:29:45;36.50;;;18.08;;
73841;SDS011;62184;52.006;5.924;2022-12-08T02:35:58;32.28;;;15.95;;
73841;SDS011;62184;52.006;5.924;2022-12-08T02:38:36;32.10;;;16.50;;
73841;SDS011;62184;52.006;5.924;2022-12-08T02:41:22;31.20;;;15.95;;
73841;SDS011;62184;52.006;5.924;2022-12-08T02:44:03;29.33;;;15.50;;
73841;SDS011;62184;52.006;5.924;2022-12-08T02:46:37;30.75;;;15.35;;
73841;SDS011;62184;52.006;5.924;2022-12-08T02:49:09;27.98;;;14.43;;
73841;SDS011;62184;52.006;5.924;2022-12-08T02:51:39;29.92;;;15.10;;
73841;SDS011;62184;52.006;5.924;2022-12-08T02:54:05;28.63;;;15.85;;
73841;SDS011;62184;52.006;5.924;2022-12-08T02:56:36;30.13;;;15.25;;
73841;SDS011;62184;52.006;5.924;2022-12-08T02:59:24;32.33;;;16.20;;
73841;SDS011;62184;52.006;5.924;2022-12-08T03:05:08;34.10;;;16.80;;
73841;SDS011;62184;52.006;5.924;2022-12-08T03:07:58;32.87;;;14.87;;
73841;SDS011;62184;52.006;5.924;2022-12-08T03:10:39;33.72;;;15.43;;
73841;SDS011;62184;52.006;5.924;2022-12-08T03:13:16;35.53;;;15.43;;
73841;SDS011;62184;52.006;5.924;2022-12-08T03:15:48;34.55;;;15.48;;
73841;SDS011;62184;52.006;5.924;2022-12-08T03:18:17;32.13;;;16.50;;
73841;SDS011;62184;52.006;5.924;2022-12-08T03:20:51;34.90;;;16.15;;
73841;SDS011;62184;52.006;5.924;2022-12-08T03:23:20;36.55;;;17.08;;
73841;SDS011;62184;52.006;5.924;2022-12-08T03:25:52;37.85;;;16.85;;
73841;SDS011;62184;52.006;5.924;2022-12-08T03:28:28;35.35;;;16.88;;
73841;SDS011;62184;52.006;5.924;2022-12-08T03:30:57;33.70;;;15.45;;
73841;SDS011;62184;52.006;5.924;2022-12-08T03:33:32;33.72;;;15.60;;
73841;SDS011;62184;52.006;5.924;2022-12-08T03:36:03;32.92;;;16.08;;
73841;SDS011;62184;52.006;5.924;2022-12-08T03:38:40;33.13;;;15.05;;
73841;SDS011;62184;52.006;5.924;2022-12-08T03:41:09;33.83;;;15.50;;
73841;SDS011;62184;52.006;5.924;2022-12-08T03:43:37;29.97;;;14.00;;
73841;SDS011;62184;52.006;5.924;2022-12-08T03:46:03;28.97;;;14.20;;
73841;SDS011;62184;52.006;5.924;2022-12-08T03:48:30;28.30;;;13.85;;
73841;SDS011;62184;52.006;5.924;2022-12-08T03:50:56;30.17;;;14.27;;
73841;SDS011;62184;52.006;5.924;2022-12-08T03:53:23;27.50;;;12.90;;
73841;SDS011;62184;52.006;5.924;2022-12-08T03:55:52;27.95;;;12.73;;
73841;SDS011;62184;52.006;5.924;2022-12-08T03:58:18;26.58;;;13.55;;
73841;SDS011;62184;52.006;5.924;2022-12-08T04:00:45;25.08;;;12.13;;
73841;SDS011;62184;52.006;5.924;2022-12-08T04:03:11;23.98;;;12.55;;
73841;SDS011;62184;52.006;5.924;2022-12-08T04:05:38;20.02;;;11.13;;
73841;SDS011;62184;52.006;5.924;2022-12-08T04:08:04;20.48;;;11.52;;
73841;SDS011;62184;52.006;5.924;2022-12-08T04:10:30;20.35;;;10.30;;
73841;SDS011;62184;52.006;5.924;2022-12-08T04:12:59;16.00;;;9.35;;
73841;SDS011;62184;52.006;5.924;2022-12-08T04:15:26;17.30;;;9.40;;
73841;SDS011;62184;52.006;5.924;2022-12-08T04:17:52;16.33;;;8.97;;
73841;SDS011;62184;52.006;5.924;2022-12-08T04:20:19;15.65;;;8.35;;
73841;SDS011;62184;52.006;5.924;2022-12-08T04:22:45;14.40;;;7.88;;
73841;SDS011;62184;52.006;5.924;2022-12-08T04:25:12;14.77;;;7.97;;
73841;SDS011;62184;52.006;5.924;2022-12-08T04:27:38;14.35;;;7.47;;
73841;SDS011;62184;52.006;5.924;2022-12-08T04:30:08;12.20;;;6.95;;
73841;SDS011;62184;52.006;5.924;2022-12-08T04:32:36;12.90;;;6.80;;
73841;SDS011;62184;52.006;5.924;2022-12-08T04:35:02;9.83;;;5.63;;
73841;SDS011;62184;52.006;5.924;2022-12-08T04:37:29;10.00;;;5.93;;
73841;SDS011;62184;52.006;5.924;2022-12-08T04:39:56;10.82;;;5.97;;
73841;SDS011;62184;52.006;5.924;2022-12-08T04:42:22;10.25;;;5.43;;
73841;SDS011;62184;52.006;5.924;2022-12-08T04:44:48;10.50;;;4.97;;
73841;SDS011;62184;52.006;5.924;2022-12-08T04:47:17;9.35;;;4.97;;
73841;SDS011;62184;52.006;5.924;2022-12-08T04:49:44;7.70;;;4.25;;
73841;SDS011;62184;52.006;5.924;2022-12-08T04:52:10;8.02;;;4.18;;
73841;SDS011;62184;52.006;5.924;2022-12-08T04:54:37;7.13;;;4.63;;
73841;SDS011;62184;52.006;5.924;2022-12-08T04:57:03;8.38;;;4.72;;
73841;SDS011;62184;52.006;5.924;2022-12-08T04:59:30;9.48;;;4.80;;
73841;SDS011;62184;52.006;5.924;2022-12-08T05:01:56;8.77;;;4.82;;
73841;SDS011;62184;52.006;5.924;2022-12-08T05:04:25;10.43;;;5.65;;
73841;SDS011;62184;52.006;5.924;2022-12-08T05:06:52;12.68;;;6.72;;
73841;SDS011;62184;52.006;5.924;2022-12-08T05:09:18;12.50;;;7.00;;
73841;SDS011;62184;52.006;5.924;2022-12-08T05:11:45;11.52;;;7.00;;
73841;SDS011;62184;52.006;5.924;2022-12-08T05:14:12;11.20;;;7.32;;
73841;SDS011;62184;52.006;5.924;2022-12-08T05:16:41;11.97;;;7.13;;
73841;SDS011;62184;52.006;5.924;2022-12-08T05:19:09;12.85;;;7.95;;
73841;SDS011;62184;52.006;5.924;2022-12-08T05:21:39;14.48;;;7.90;;
73841;SDS011;62184;52.006;5.924;2022-12-08T05:24:06;15.20;;;8.10;;
73841;SDS011;62184;52.006;5.924;2022-12-08T05:26:33;15.43;;;8.68;;
73841;SDS011;62184;52.006;5.924;2022-12-08T05:28:59;18.95;;;9.25;;
73841;SDS011;62184;52.006;5.924;2022-12-08T05:31:26;16.00;;;9.13;;
73841;SDS011;62184;52.006;5.924;2022-12-08T05:33:53;16.33;;;9.02;;
73841;SDS011;62184;52.006;5.924;2022-12-08T05:36:19;16.63;;;9.30;;
73841;SDS011;62184;52.006;5.924;2022-12-08T05:38:48;17.17;;;9.27;;
73841;SDS011;62184;52.006;5.924;2022-12-08T05:41:15;16.75;;;9.50;;
73841;SDS011;62184;52.006;5.924;2022-12-08T05:43:44;18.73;;;9.50;;
73841;SDS011;62184;52.006;5.924;2022-12-08T05:46:11;16.77;;;9.43;;
73841;SDS011;62184;52.006;5.924;2022-12-08T05:48:39;16.15;;;8.43;;
73841;SDS011;62184;52.006;5.924;2022-12-08T05:51:07;15.10;;;8.75;;
73841;SDS011;62184;52.006;5.924;2022-12-08T05:53:43;16.65;;;8.48;;
73841;SDS011;62184;52.006;5.924;2022-12-08T05:56:12;14.38;;;8.23;;
73841;SDS011;62184;52.006;5.924;2022-12-08T05:58:39;15.68;;;7.82;;
73841;SDS011;62184;52.006;5.924;2022-12-08T06:01:05;12.25;;;6.18;;
73841;SDS011;62184;52.006;5.924;2022-12-08T06:03:32;12.50;;;6.72;;
73841;SDS011;62184;52.006;5.924;2022-12-08T06:05:59;11.13;;;5.63;;
73841;SDS011;62184;52.006;5.924;2022-12-08T06:08:25;11.93;;;5.35;;
73841;SDS011;62184;52.006;5.924;2022-12-08T06:10:51;9.57;;;5.05;;
73841;SDS011;62184;52.006;5.924;2022-12-08T06:13:20;12.40;;;5.30;;
73841;SDS011;62184;52.006;5.924;2022-12-08T06:15:47;10.57;;;5.35;;
73841;SDS011;62184;52.006;5.924;2022-12-08T06:18:13;10.43;;;5.22;;
73841;SDS011;62184;52.006;5.924;2022-12-08T06:20:40;10.13;;;5.15;;
73841;SDS011;62184;52.006;5.924;2022-12-08T06:23:06;9.48;;;4.45;;
73841;SDS011;62184;52.006;5.924;2022-12-08T06:25:32;9.25;;;4.75;;
73841;SDS011;62184;52.006;5.924;2022-12-08T06:27:59;8.90;;;5.03;;
73841;SDS011;62184;52.006;5.924;2022-12-08T06:30:28;8.88;;;4.80;;
73841;SDS011;62184;52.006;5.924;2022-12-08T06:32:54;8.98;;;4.45;;
73841;SDS011;62184;52.006;5.924;2022-12-08T06:35:21;8.52;;;4.35;;
73841;SDS011;62184;52.006;5.924;2022-12-08T06:37:48;9.38;;;4.47;;
73841;SDS011;62184;52.006;5.924;2022-12-08T06:40:15;9.27;;;4.28;;
73841;SDS011;62184;52.006;5.924;2022-12-08T06:42:42;9.63;;;4.40;;
73841;SDS011;62184;52.006;5.924;2022-12-08T06:45:09;8.65;;;4.35;;
73841;SDS011;62184;52.006;5.924;2022-12-08T06:47:39;7.90;;;3.63;;
73841;SDS011;62184;52.006;5.924;2022-12-08T06:50:06;7.45;;;3.72;;
73841;SDS011;62184;52.006;5.924;2022-12-08T06:52:35;6.20;;;3.30;;
73841;SDS011;62184;52.006;5.924;2022-12-08T06:55:02;7.10;;;3.28;;
73841;SDS011;62184;52.006;5.924;2022-12-08T06:57:29;6.22;;;3.20;;
73841;SDS011;62184;52.006;5.924;2022-12-08T06:59:55;6.28;;;2.85;;
73841;SDS011;62184;52.006;5.924;2022-12-08T07:02:22;6.88;;;3.10;;
73841;SDS011;62184;52.006;5.924;2022-12-08T07:04:51;7.35;;;3.20;;
73841;SDS011;62184;52.006;5.924;2022-12-08T07:07:17;7.00;;;2.80;;
73841;SDS011;62184;52.006;5.924;2022-12-08T07:09:44;9.10;;;3.37;;
73841;SDS011;62184;52.006;5.924;2022-12-08T07:12:10;7.73;;;3.70;;
73841;SDS011;62184;52.006;5.924;2022-12-08T07:14:36;8.17;;;3.30;;
73841;SDS011;62184;52.006;5.924;2022-12-08T07:17:03;9.30;;;4.00;;
73841;SDS011;62184;52.006;5.924;2022-12-08T07:19:29;8.87;;;3.87;;
73841;SDS011;62184;52.006;5.924;2022-12-08T07:21:58;8.87;;;4.40;;
73841;SDS011;62184;52.006;5.924;2022-12-08T07:24:25;9.90;;;4.40;;
73841;SDS011;62184;52.006;5.924;2022-12-08T07:26:51;9.27;;;3.90;;
73841;SDS011;62184;52.006;5.924;2022-12-08T07:29:17;9.80;;;4.50;;
73841;SDS011;62184;52.006;5.924;2022-12-08T07:31:47;10.77;;;4.43;;
73841;SDS011;62184;52.006;5.924;2022-12-08T07:34:13;10.68;;;4.43;;
73841;SDS011;62184;52.006;5.924;2022-12-08T07:36:41;11.27;;;4.57;;
73841;SDS011;62184;52.006;5.924;2022-12-08T07:39:10;10.25;;;4.47;;
73841;SDS011;62184;52.006;5.924;2022-12-08T07:41:37;11.27;;;4.60;;
73841;SDS011;62184;52.006;5.924;2022-12-08T07:44:03;10.35;;;3.90;;
73841;SDS011;62184;52.006;5.924;2022-12-08T07:46:30;11.18;;;4.20;;
73841;SDS011;62184;52.006;5.924;2022-12-08T07:48:56;10.55;;;4.25;;
73841;SDS011;62184;52.006;5.924;2022-12-08T07:51:23;11.18;;;3.80;;
73841;SDS011;62184;52.006;5.924;2022-12-08T07:53:49;9.98;;;3.70;;
73841;SDS011;62184;52.006;5.924;2022-12-08T07:56:19;10.07;;;4.10;;
73841;SDS011;62184;52.006;5.924;2022-12-08T07:58:47;8.95;;;3.83;;
73841;SDS011;62184;52.006;5.924;2022-12-08T08:01:17;7.97;;;3.37;;
73841;SDS011;62184;52.006;5.924;2022-12-08T08:03:46;8.30;;;3.28;;
73841;SDS011;62184;52.006;5.924;2022-12-08T08:06:13;9.27;;;3.42;;
73841;SDS011;62184;52.006;5.924;2022-12-08T08:08:39;8.82;;;3.17;;
73841;SDS011;62184;52.006;5.924;2022-12-08T08:11:06;8.02;;;3.38;;
73841;SDS011;62184;52.006;5.924;2022-12-08T08:13:35;8.93;;;3.65;;
73841;SDS011;62184;52.006;5.924;2022-12-08T08:16:02;8.27;;;3.27;;
73841;SDS011;62184;52.006;5.924;2022-12-08T08:18:30;7.97;;;2.90;;
73841;SDS011;62184;52.006;5.924;2022-12-08T08:20:57;7.88;;;2.95;;
73841;SDS011;62184;52.006;5.924;2022-12-08T08:23:24;7.40;;;3.08;;
73841;SDS011;62184;52.006;5.924;2022-12-08T08:25:50;7.00;;;3.08;;
73841;SDS011;62184;52.006;5.924;2022-12-08T08:28:17;7.38;;;3.13;;
73841;SDS011;62184;52.006;5.924;2022-12-08T08:30:46;6.83;;;3.00;;
73841;SDS011;62184;52.006;5.924;2022-12-08T08:33:12;7.35;;;3.30;;
73841;SDS011;62184;52.006;5.924;2022-12-08T08:35:39;7.40;;;3.33;;
73841;SDS011;62184;52.006;5.924;2022-12-08T08:38:05;7.05;;;3.70;;
73841;SDS011;62184;52.006;5.924;2022-12-08T08:40:32;7.33;;;3.10;;
73841;SDS011;62184;52.006;5.924;2022-12-08T08:42:59;7.20;;;3.50;;
73841;SDS011;62184;52.006;5.924;2022-12-08T08:45:25;7.07;;;3.17;;
73841;SDS011;62184;52.006;5.924;2022-12-08T08:47:54;8.15;;;3.00;;
73841;SDS011;62184;52.006;5.924;2022-12-08T08:50:21;6.13;;;3.00;;
73841;SDS011;62184;52.006;5.924;2022-12-08T08:52:48;6.65;;;2.80;;
73841;SDS011;62184;52.006;5.924;2022-12-08T08:55:14;6.80;;;2.58;;
73841;SDS011;62184;52.006;5.924;2022-12-08T08:57:41;7.93;;;3.50;;
73841;SDS011;62184;52.006;5.924;2022-12-08T09:00:09;6.10;;;3.15;;
73841;SDS011;62184;52.006;5.924;2022-12-08T09:02:37;6.10;;;2.65;;
73841;SDS011;62184;52.006;5.924;2022-12-08T09:05:07;6.97;;;3.10;;
73841;SDS011;62184;52.006;5.924;2022-12-08T09:07:34;7.47;;;2.80;;
73841;SDS011;62184;52.006;5.924;2022-12-08T09:10:00;6.80;;;3.20;;
73841;SDS011;62184;52.006;5.924;2022-12-08T09:12:26;9.97;;;4.37;;
73841;SDS011;62184;52.006;5.924;2022-12-08T09:14:53;9.33;;;5.27;;
73841;SDS011;62184;52.006;5.924;2022-12-08T09:17:19;9.20;;;4.97;;
73841;SDS011;62184;52.006;5.924;2022-12-08T09:19:46;9.00;;;5.03;;
73841;SDS011;62184;52.006;5.924;2022-12-08T09:22:15;9.20;;;5.30;;
73841;SDS011;62184;52.006;5.924;2022-12-08T09:24:42;10.20;;;5.90;;
73841;SDS011;62184;52.006;5.924;2022-12-08T09:27:08;10.70;;;6.10;;
73841;SDS011;62184;52.006;5.924;2022-12-08T09:29:34;9.77;;;5.85;;
73841;SDS011;62184;52.006;5.924;2022-12-08T09:32:01;9.43;;;5.40;;
73841;SDS011;62184;52.006;5.924;2022-12-08T09:34:27;10.30;;;5.88;;
73841;SDS011;62184;52.006;5.924;2022-12-08T09:36:54;9.97;;;6.50;;
73841;SDS011;62184;52.006;5.924;2022-12-08T09:39:23;9.10;;;5.63;;
73841;SDS011;62184;52.006;5.924;2022-12-08T09:41:49;8.38;;;5.20;;
73841;SDS011;62184;52.006;5.924;2022-12-08T09:44:33;9.38;;;6.28;;
73841;SDS011;62184;52.006;5.924;2022-12-08T09:47:13;9.52;;;5.53;;
73841;SDS011;62184;52.006;5.924;2022-12-08T09:49:47;10.05;;;6.07;;
73841;SDS011;62184;52.006;5.924;2022-12-08T09:52:24;9.75;;;5.40;;
73841;SDS011;62184;52.006;5.924;2022-12-08T09:55:00;9.73;;;5.80;;
73841;SDS011;62184;52.006;5.924;2022-12-08T09:57:40;9.27;;;6.00;;
73841;SDS011;62184;52.006;5.924;2022-12-08T10:00:09;9.50;;;5.60;;
73841;SDS011;62184;52.006;5.924;2022-12-08T10:02:38;9.60;;;5.25;;
73841;SDS011;62184;52.006;5.924;2022-12-08T10:05:06;10.07;;;5.75;;
73841;SDS011;62184;52.006;5.924;2022-12-08T10:07:40;8.93;;;5.35;;
73841;SDS011;62184;52.006;5.924;2022-12-08T10:10:19;9.48;;;5.63;;
73841;SDS011;62184;52.006;5.924;2022-12-08T10:12:58;10.15;;;6.30;;
73841;SDS011;62184;52.006;5.924;2022-12-08T10:15:40;7.20;;;4.15;;
73841;SDS011;62184;52.006;5.924;2022-12-08T10:18:14;7.20;;;3.70;;
73841;SDS011;62184;52.006;5.924;2022-12-08T10:20:44;7.57;;;4.57;;
73841;SDS011;62184;52.006;5.924;2022-12-08T10:23:14;6.82;;;4.47;;
73841;SDS011;62184;52.006;5.924;2022-12-08T10:25:55;6.50;;;3.75;;
73841;SDS011;62184;52.006;5.924;2022-12-08T10:28:26;6.63;;;3.42;;
73841;SDS011;62184;52.006;5.924;2022-12-08T10:30:53;6.78;;;4.25;;
73841;SDS011;62184;52.006;5.924;2022-12-08T10:33:20;6.35;;;4.32;;
73841;SDS011;62184;52.006;5.924;2022-12-08T10:35:48;6.05;;;3.70;;
73841;SDS011;62184;52.006;5.924;2022-12-08T10:38:18;6.90;;;3.80;;
73841;SDS011;62184;52.006;5.924;2022-12-08T10:40:49;6.53;;;3.70;;
73841;SDS011;62184;52.006;5.924;2022-12-08T10:43:24;6.85;;;4.05;;
73841;SDS011;62184;52.006;5.924;2022-12-08T10:45:52;6.32;;;3.90;;
73841;SDS011;62184;52.006;5.924;2022-12-08T10:48:20;6.97;;;4.03;;
73841;SDS011;62184;52.006;5.924;2022-12-08T10:50:52;7.50;;;4.05;;
73841;SDS011;62184;52.006;5.924;2022-12-08T10:53:22;7.05;;;3.90;;
73841;SDS011;62184;52.006;5.924;2022-12-08T10:55:51;7.10;;;4.38;;
73841;SDS011;62184;52.006;5.924;2022-12-08T10:58:34;7.63;;;4.00;;
73841;SDS011;62184;52.006;5.924;2022-12-08T11:01:04;7.22;;;4.40;;
73841;SDS011;62184;52.006;5.924;2022-12-08T11:03:37;7.18;;;4.40;;
73841;SDS011;62184;52.006;5.924;2022-12-08T11:06:11;6.85;;;4.40;;
73841;SDS011;62184;52.006;5.924;2022-12-08T11:08:46;8.32;;;4.20;;
73841;SDS011;62184;52.006;5.924;2022-12-08T11:11:19;7.53;;;4.73;;
73841;SDS011;62184;52.006;5.924;2022-12-08T11:13:49;6.95;;;4.25;;
73841;SDS011;62184;52.006;5.924;2022-12-08T11:16:16;7.50;;;4.73;;
73841;SDS011;62184;52.006;5.924;2022-12-08T11:18:45;7.13;;;5.10;;
73841;SDS011;62184;52.006;5.924;2022-12-08T11:21:21;7.50;;;5.20;;
73841;SDS011;62184;52.006;5.924;2022-12-08T11:24:09;8.32;;;6.00;;
73841;SDS011;62184;52.006;5.924;2022-12-08T11:26:51;9.60;;;6.82;;
73841;SDS011;62184;52.006;5.924;2022-12-08T11:29:27;9.43;;;6.63;;
73841;SDS011;62184;52.006;5.924;2022-12-08T11:31:58;9.00;;;7.05;;
73841;SDS011;62184;52.006;5.924;2022-12-08T11:34:30;9.50;;;6.65;;
73841;SDS011;62184;52.006;5.924;2022-12-08T11:37:02;10.13;;;7.22;;
73841;SDS011;62184;52.006;5.924;2022-12-08T11:39:33;10.27;;;7.45;;
73841;SDS011;62184;52.006;5.924;2022-12-08T11:42:07;9.43;;;6.90;;
73841;SDS011;62184;52.006;5.924;2022-12-08T11:44:44;8.88;;;6.20;;
73841;SDS011;62184;52.006;5.924;2022-12-08T11:47:18;9.88;;;6.63;;
73841;SDS011;62184;52.006;5.924;2022-12-08T11:49:53;8.80;;;6.15;;
73841;SDS011;62184;52.006;5.924;2022-12-08T11:52:37;8.65;;;5.80;;
73841;SDS011;62184;52.006;5.924;2022-12-08T11:55:15;8.43;;;5.97;;
73841;SDS011;62184;52.006;5.924;2022-12-08T11:57:55;7.57;;;5.37;;
73841;SDS011;62184;52.006;5.924;2022-12-08T12:00:29;7.40;;;5.25;;
73841;SDS011;62184;52.006;5.924;2022-12-08T12:02:57;8.50;;;5.10;;
73841;SDS011;62184;52.006;5.924;2022-12-08T12:05:34;7.47;;;5.10;;
73841;SDS011;62184;52.006;5.924;2022-12-08T12:08:24;7.57;;;5.43;;
73841;SDS011;62184;52.006;5.924;2022-12-08T12:11:15;7.32;;;4.75;;
73841;SDS011;62184;52.006;5.924;2022-12-08T12:13:57;7.53;;;4.60;;
73841;SDS011;62184;52.006;5.924;2022-12-08T12:16:49;7.47;;;4.82;;
73841;SDS011;62184;52.006;5.924;2022-12-08T12:19:27;8.35;;;4.75;;
73841;SDS011;62184;52.006;5.924;2022-12-08T12:22:05;7.15;;;4.75;;
73841;SDS011;62184;52.006;5.924;2022-12-08T12:24:41;7.28;;;3.97;;
73841;SDS011;62184;52.006;5.924;2022-12-08T12:27:20;5.70;;;3.60;;
73841;SDS011;62184;52.006;5.924;2022-12-08T12:29:55;5.93;;;3.55;;
73841;SDS011;62184;52.006;5.924;2022-12-08T12:32:38;5.63;;;3.85;;
73841;SDS011;62184;52.006;5.924;2022-12-08T12:35:13;5.85;;;3.30;;
73841;SDS011;62184;52.006;5.924;2022-12-08T12:37:45;5.65;;;3.00;;
73841;SDS011;62184;52.006;5.924;2022-12-08T12:40:15;6.23;;;3.20;;
73841;SDS011;62184;52.006;5.924;2022-12-08T12:42:46;6.40;;;3.40;;
73841;SDS011;62184;52.006;5.924;2022-12-08T12:45:33;5.35;;;3.15;;
73841;SDS011;62184;52.006;5.924;2022-12-08T12:50:50;9.82;;;3.13;;
73841;SDS011;62184;52.006;5.924;2022-12-08T12:59:20;5.13;;;2.40;;
73841;SDS011;62184;52.006;5.924;2022-12-08T13:02:10;5.07;;;2.63;;
73841;SDS011;62184;52.006;5.924;2022-12-08T13:04:55;5.20;;;2.90;;
73841;SDS011;62184;52.006;5.924;2022-12-08T13:07:27;5.13;;;2.37;;
73841;SDS011;62184;52.006;5.924;2022-12-08T13:09:58;4.60;;;2.50;;
73841;SDS011;62184;52.006;5.924;2022-12-08T13:12:29;5.72;;;2.40;;
73841;SDS011;62184;52.006;5.924;2022-12-08T13:14:58;4.50;;;2.20;;
73841;SDS011;62184;52.006;5.924;2022-12-08T13:17:30;5.50;;;2.30;;
73841;SDS011;62184;52.006;5.924;2022-12-08T13:20:05;5.50;;;2.47;;
73841;SDS011;62184;52.006;5.924;2022-12-08T13:22:59;5.45;;;2.13;;
73841;SDS011;62184;52.006;5.924;2022-12-08T13:25:47;4.40;;;2.25;;
73841;SDS011;62184;52.006;5.924;2022-12-08T13:28:24;5.07;;;2.10;;
73841;SDS011;62184;52.006;5.924;2022-12-08T13:30:53;4.77;;;2.57;;
73841;SDS011;62184;52.006;5.924;2022-12-08T13:33:26;4.65;;;2.00;;
73841;SDS011;62184;52.006;5.924;2022-12-08T13:36:09;5.80;;;2.65;;
73841;SDS011;62184;52.006;5.924;2022-12-08T13:38:46;5.10;;;2.28;;
73841;SDS011;62184;52.006;5.924;2022-12-08T13:41:21;4.80;;;2.40;;
73841;SDS011;62184;52.006;5.924;2022-12-08T13:43:56;4.82;;;2.15;;
73841;SDS011;62184;52.006;5.924;2022-12-08T13:46:31;4.50;;;2.10;;
73841;SDS011;62184;52.006;5.924;2022-12-08T13:49:04;5.32;;;2.80;;
73841;SDS011;62184;52.006;5.924;2022-12-08T13:51:37;5.97;;;1.83;;
73841;SDS011;62184;52.006;5.924;2022-12-08T13:54:09;5.28;;;1.80;;
73841;SDS011;62184;52.006;5.924;2022-12-08T13:56:45;4.57;;;2.20;;
73841;SDS011;62184;52.006;5.924;2022-12-08T13:59:23;4.95;;;2.67;;
73841;SDS011;62184;52.006;5.924;2022-12-08T14:01:52;5.05;;;2.60;;
73841;SDS011;62184;52.006;5.924;2022-12-08T14:04:22;5.05;;;2.40;;
73841;SDS011;62184;52.006;5.924;2022-12-08T14:06:54;4.50;;;2.10;;
73841;SDS011;62184;52.006;5.924;2022-12-08T14:09:25;5.43;;;2.33;;
73841;SDS011;62184;52.006;5.924;2022-12-08T14:11:58;7.13;;;2.58;;
73841;SDS011;62184;52.006;5.924;2022-12-08T14:14:28;5.70;;;2.35;;
73841;SDS011;62184;52.006;5.924;2022-12-08T14:17:00;5.25;;;2.50;;
73841;SDS011;62184;52.006;5.924;2022-12-08T14:19:30;6.10;;;2.20;;
73841;SDS011;62184;52.006;5.924;2022-12-08T14:22:04;5.45;;;2.22;;
73841;SDS011;62184;52.006;5.924;2022-12-08T14:24:37;5.97;;;2.38;;
73841;SDS011;62184;52.006;5.924;2022-12-08T14:27:04;5.37;;;2.60;;
73841;SDS011;62184;52.006;5.924;2022-12-08T14:29:37;4.75;;;2.50;;
73841;SDS011;62184;52.006;5.924;2022-12-08T14:32:24;5.38;;;2.67;;
73841;SDS011;62184;52.006;5.924;2022-12-08T14:34:56;5.65;;;2.85;;
73841;SDS011;62184;52.006;5.924;2022-12-08T14:37:30;5.20;;;2.83;;
73841;SDS011;62184;52.006;5.924;2022-12-08T14:40:00;5.60;;;2.80;;
73841;SDS011;62184;52.006;5.924;2022-12-08T14:42:35;6.20;;;3.07;;
73841;SDS011;62184;52.006;5.924;2022-12-08T14:45:10;6.97;;;3.30;;
73841;SDS011;62184;52.006;5.924;2022-12-08T14:47:39;6.30;;;3.13;;
73841;SDS011;62184;52.006;5.924;2022-12-08T14:53:15;7.00;;;2.90;;
73841;SDS011;62184;52.006;5.924;2022-12-08T14:55:43;7.68;;;3.67;;
73841;SDS011;62184;52.006;5.924;2022-12-08T14:58:16;7.10;;;3.40;;
73841;SDS011;62184;52.006;5.924;2022-12-08T15:00:46;7.40;;;4.07;;
73841;SDS011;62184;52.006;5.924;2022-12-08T15:03:14;8.00;;;3.70;;
73841;SDS011;62184;52.006;5.924;2022-12-08T15:05:41;7.67;;;3.70;;
73841;SDS011;62184;52.006;5.924;2022-12-08T15:08:08;8.43;;;3.75;;
73841;SDS011;62184;52.006;5.924;2022-12-08T15:10:38;7.65;;;3.92;;
73841;SDS011;62184;52.006;5.924;2022-12-08T15:13:06;11.43;;;4.85;;
73841;SDS011;62184;52.006;5.924;2022-12-08T15:15:47;9.05;;;4.50;;
73841;SDS011;62184;52.006;5.924;2022-12-08T15:18:17;8.85;;;4.88;;
73841;SDS011;62184;52.006;5.924;2022-12-08T15:20:46;12.93;;;6.20;;